Fairbanks International Airport Fairbanks US
ICAO: PAFA
IATA: FAI
Category: Large
Scheduled Services:

Elevation: 439 ft
TransAlt. 18000 ft.

Airport Communications:
APP:118.6
ASOS:119.025
ATIS:124.4
TWEB:108.2
CLNC DEL:127.6
DEP:32.71
RDO:122.6
GND:121.9
EIELSON RANGE CON:125.3
TWR:118.3
UNICOM:122.95

PAFA Zoom In..

Runways:

(A) RW 02 length 2900 ft width 75 ft
---- / hdg 17

(B) RW 02L length 11800 ft width 150 ft
ILS 109.10 / hdg 17

(C) RW 02R length 6501 ft width 100 ft
---- / hdg 17

(D) RW 20 length 2900 ft width 75 ft
---- / hdg 197

(E) RW 20L length 6501 ft width 100 ft
---- / hdg 197

(F) RW 20R length 11800 ft width 150 ft
ILS 110.30 / hdg 197

Location; PAFA
Day. 23 / Time. 21.53 Zulu
* Altimeter: 30.18
* Temperature: -26° c. 14.8°f.
* Wind from: 190° Speed 04 kn.
Dewpoint: -29° c.
Visibility: 1 m.
Clouds: Scattered 800 ft.
Clouds: Overcast 3100 ft.
Conditions: Light Snow.Conditions: Mist.

PAFA 232153Z 19004KT 1 1/2SM -SN BR SCT008 OVC031 M26/M29 A3018 RMK AO2 TWR VIS 2 SLP238 VIS W 2 T12611294


Wind From 190°
Speed 04 kn.

YouTube Music Video
 
jpsmedia.com for Web Design  worldairports.se 2018   terms of use